Time;durP1;ratioP1;P1;durP2;ratioP2;P2;SDS_P1;SDS_P2;PMS_P1;PMS_P2;Temp;Humidity;BMP_temperature;BMP_pressure;BME280_temperature;BME280_humidity;BME280_pressure;Samples;Min_cycle;Max_cycle;Signal;HPM_P1;HPM_P2
2023/09/13 00:01:19;;;;;;;13.23;6.53;;;19.40;99.90;;;;;;4150494;28;20216;-84
2023/09/13 00:03:20;;;;;;;13.00;6.50;;;19.50;99.90;;;;;;4150655;28;20227;-83
2023/09/13 00:05:21;;;;;;;16.05;7.10;;;19.50;99.90;;;;;;4166990;28;20180;-93
2023/09/13 00:07:22;;;;;;;15.13;6.57;;;19.40;99.90;;;;;;4150025;28;20203;-93
2023/09/13 00:09:22;;;;;;;15.93;6.97;;;19.50;99.90;;;;;;4166360;28;20247;-93
2023/09/13 00:11:23;;;;;;;14.65;6.30;;;19.40;99.90;;;;;;4150245;28;20255;-93
2023/09/13 00:13:24;;;;;;;20.50;7.38;;;19.40;99.90;;;;;;4167663;28;20208;-83
2023/09/13 00:15:24;;;;;;;14.18;5.97;;;19.30;99.90;;;;;;4150331;28;20272;-85
2023/09/13 00:17:27;;;;;;;11.88;5.65;;;19.20;99.90;;;;;;4150386;28;20216;-92
2023/09/13 00:19:28;;;;;;;13.20;6.10;;;19.30;99.90;;;;;;4166495;28;20223;-89
2023/09/13 00:21:28;;;;;;;17.42;6.80;;;19.30;99.90;;;;;;4166312;28;20176;-91
2023/09/13 00:23:29;;;;;;;15.65;6.78;;;19.20;99.90;;;;;;4167532;28;20196;-92
2023/09/13 00:25:30;;;;;;;14.82;6.18;;;19.20;99.90;;;;;;4166413;28;20177;-93
2023/09/13 00:27:30;;;;;;;15.48;6.00;;;19.30;99.90;;;;;;4166464;28;20594;-84
2023/09/13 00:29:33;;;;;;;16.65;7.25;;;19.10;99.90;;;;;;4166607;28;20237;-92
2023/09/13 00:31:34;;;;;;;18.83;7.07;;;19.10;99.90;;;;;;4167394;28;20187;-84
2023/09/13 00:33:35;;;;;;;12.30;6.38;;;19.10;99.90;;;;;;4166349;28;20212;-85
2023/09/13 00:35:36;;;;;;;17.58;6.95;;;19.10;99.90;;;;;;4166162;28;20614;-84
2023/09/13 00:37:37;;;;;;;16.95;6.93;;;18.90;99.90;;;;;;4167332;28;20672;-83
2023/09/13 00:39:38;;;;;;;15.75;7.35;;;18.70;99.90;;;;;;4166140;28;20249;-92
2023/09/13 00:41:38;;;;;;;16.27;6.72;;;18.80;99.90;;;;;;4165359;28;20593;-92
2023/09/13 00:43:39;;;;;;;14.15;6.50;;;18.90;99.90;;;;;;4165087;28;20210;-83
2023/09/13 00:45:41;;;;;;;14.23;6.28;;;18.90;99.90;;;;;;4149773;28;20177;-92
2023/09/13 00:47:42;;;;;;;14.90;6.72;;;18.90;99.90;;;;;;4166119;28;20177;-93
2023/09/13 00:49:44;;;;;;;13.05;6.15;;;19.00;99.90;;;;;;4165972;28;20258;-84
2023/09/13 00:51:45;;;;;;;17.27;6.38;;;19.00;99.90;;;;;;4149533;28;20176;-92
2023/09/13 00:53:47;;;;;;;15.27;6.93;;;19.00;99.90;;;;;;4149474;28;20216;-84
2023/09/13 00:55:50;;;;;;;15.68;6.63;;;19.00;99.90;;;;;;4166198;28;20191;-93
2023/09/13 00:57:51;;;;;;;16.77;6.97;;;18.90;99.90;;;;;;4149585;28;20177;-83
2023/09/13 00:59:52;;;;;;;12.93;5.97;;;18.80;99.90;;;;;;4149688;28;20180;-92
2023/09/13 01:01:53;;;;;;;13.48;6.45;;;18.60;99.90;;;;;;4165992;28;20693;-83
2023/09/13 01:03:57;;;;;;;12.40;5.57;;;18.70;99.90;;;;;;4166947;28;20196;-84
2023/09/13 01:05:58;;;;;;;14.30;6.28;;;18.80;99.90;;;;;;4166015;28;20176;-92
2023/09/13 01:07:59;;;;;;;12.93;5.68;;;18.70;99.90;;;;;;4165809;28;20247;-91
2023/09/13 01:10:00;;;;;;;16.25;7.20;;;18.80;99.90;;;;;;4149497;28;20201;-83
2023/09/13 01:12:00;;;;;;;16.52;7.13;;;18.80;99.90;;;;;;4165860;28;20630;-83
2023/09/13 01:14:02;;;;;;;12.13;6.15;;;18.90;99.90;;;;;;4149184;28;20693;-83
2023/09/13 01:16:30;;;;;;;11.25;5.88;;;18.90;99.90;;;;;;4149409;28;20185;-83
2023/09/13 01:18:38;;;;;;;14.32;7.05;;;19.10;99.90;;;;;;4165439;28;20282;-90
2023/09/13 01:20:58;;;;;;;14.45;6.25;;;19.20;99.90;;;;;;4165677;28;20238;-83
2023/09/13 01:23:18;;;;;;;12.95;5.90;;;19.30;99.90;;;;;;4165559;28;20582;-83
2023/09/13 01:25:21;;;;;;;12.00;5.10;;;19.40;99.90;;;;;;4165613;28;20180;-83
2023/09/13 01:27:34;;;;;;;17.15;6.38;;;19.50;99.90;;;;;;4165543;28;20181;-83
2023/09/13 01:29:35;;;;;;;12.07;5.68;;;19.30;99.90;;;;;;4149056;28;20185;-83
2023/09/13 01:31:37;;;;;;;11.65;5.22;;;19.30;99.90;;;;;;4165435;28;20181;-89
2023/09/13 01:33:38;;;;;;;8.82;4.97;;;19.20;99.90;;;;;;4149115;28;20232;-83
2023/09/13 01:35:39;;;;;;;16.40;6.65;;;19.50;99.90;;;;;;4165586;28;20331;-84
2023/09/13 01:37:40;;;;;;;16.40;6.40;;;19.40;99.90;;;;;;4165608;28;20218;-93
2023/09/13 01:39:40;;;;;;;11.43;5.38;;;19.30;99.90;;;;;;4165468;28;20196;-93
2023/09/13 01:41:52;;;;;;;14.63;5.68;;;19.30;99.90;;;;;;4165312;28;20606;-83
2023/09/13 01:43:55;;;;;;;15.02;6.07;;;19.50;99.90;;;;;;4165247;28;20701;-92
2023/09/13 01:45:57;;;;;;;11.85;5.43;;;19.10;99.90;;;;;;4165235;28;20172;-83
2023/09/13 01:47:59;;;;;;;13.15;5.75;;;19.10;99.90;;;;;;4165057;28;20677;-93
2023/09/13 01:50:00;;;;;;;13.38;5.57;;;19.10;99.90;;;;;;4148846;28;20181;-83
2023/09/13 01:52:05;;;;;;;13.35;6.18;;;19.00;99.90;;;;;;4148622;28;20185;-83
2023/09/13 01:54:06;;;;;;;10.52;4.68;;;19.00;99.90;;;;;;4164621;28;20283;-83
2023/09/13 01:56:07;;;;;;;13.95;5.57;;;19.00;99.90;;;;;;4165163;28;20570;-84
2023/09/13 01:58:07;;;;;;;14.63;6.88;;;19.00;99.90;;;;;;4148710;28;20203;-92
2023/09/13 02:00:09;;;;;;;12.27;4.20;;;19.20;99.90;;;;;;4148538;28;20193;-83
2023/09/13 02:02:12;;;;;;;8.88;4.97;;;19.30;99.90;;;;;;4165068;28;20546;-87
2023/09/13 02:04:13;;;;;;;12.63;5.57;;;19.20;99.90;;;;;;4164786;28;20200;-91
2023/09/13 02:06:14;;;;;;;19.20;5.65;;;19.20;99.90;;;;;;4164671;28;20172;-82
2023/09/13 02:08:15;;;;;;;13.73;6.15;;;19.20;99.90;;;;;;4165348;28;20185;-88
2023/09/13 02:10:15;;;;;;;16.00;5.88;;;19.40;99.90;;;;;;4164735;28;20266;-83
2023/09/13 02:12:16;;;;;;;11.95;5.43;;;19.20;99.90;;;;;;4148513;28;20177;-84
2023/09/13 02:14:17;;;;;;;16.40;5.57;;;19.40;99.90;;;;;;4164587;28;20231;-83
2023/09/13 02:16:21;;;;;;;12.07;6.07;;;19.20;99.90;;;;;;4164512;28;20623;-83
2023/09/13 02:18:22;;;;;;;11.75;5.90;;;19.10;99.90;;;;;;4164566;28;20286;-83
2023/09/13 02:20:23;;;;;;;19.08;6.47;;;19.10;99.90;;;;;;4164884;28;20180;-83
2023/09/13 02:22:24;;;;;;;12.70;5.78;;;18.90;99.90;;;;;;4164554;28;20222;-83
2023/09/13 02:24:24;;;;;;;14.20;5.93;;;18.80;99.90;;;;;;4164582;28;20255;-83
2023/09/13 02:26:26;;;;;;;11.95;5.25;;;18.80;99.90;;;;;;4164750;28;20180;-86
2023/09/13 02:28:27;;;;;;;17.25;6.65;;;19.10;99.90;;;;;;4148144;28;20188;-83
2023/09/13 02:30:29;;;;;;;15.38;6.18;;;19.20;99.90;;;;;;4148040;28;20177;-83
2023/09/13 02:32:30;;;;;;;13.60;6.28;;;19.20;99.90;;;;;;4164367;28;20184;-83
2023/09/13 02:34:32;;;;;;;15.98;6.55;;;19.20;99.90;;;;;;4148108;28;20176;-83
2023/09/13 02:36:33;;;;;;;19.88;6.43;;;19.20;99.90;;;;;;4164791;28;20191;-83
2023/09/13 02:38:34;;;;;;;15.88;6.15;;;19.20;99.90;;;;;;4148165;28;20216;-83
2023/09/13 02:40:36;;;;;;;16.45;6.97;;;19.30;99.90;;;;;;4164566;28;20186;-94
2023/09/13 02:42:37;;;;;;;18.38;6.13;;;19.40;99.90;;;;;;4148074;28;20228;-83
2023/09/13 02:44:39;;;;;;;15.50;5.80;;;19.50;99.90;;;;;;4164192;28;20180;-84
2023/09/13 02:46:39;;;;;;;17.75;6.38;;;19.70;99.90;;;;;;4148149;28;20181;-83
2023/09/13 02:48:40;;;;;;;19.45;6.45;;;19.80;99.90;;;;;;4164437;28;20187;-94
2023/09/13 02:50:41;;;;;;;15.80;5.95;;;19.60;99.90;;;;;;4164351;28;20222;-83
2023/09/13 02:52:43;;;;;;;14.73;6.65;;;19.50;99.90;;;;;;4164119;28;20203;-83
2023/09/13 02:54:44;;;;;;;12.23;6.03;;;19.40;99.90;;;;;;4164234;28;20270;-93
2023/09/13 02:56:55;;;;;;;20.83;7.70;;;19.40;99.90;;;;;;4147747;28;20177;-83
2023/09/13 02:58:56;;;;;;;16.98;6.85;;;19.60;99.90;;;;;;4163954;28;20222;-83
2023/09/13 03:00:58;;;;;;;17.45;6.82;;;19.70;99.90;;;;;;4164198;28;20291;-83
2023/09/13 03:02:59;;;;;;;17.13;7.03;;;19.60;99.90;;;;;;4147441;28;20201;-83
2023/09/13 03:05:01;;;;;;;17.58;6.80;;;19.70;99.90;;;;;;4163464;28;20188;-84
2023/09/13 03:07:01;;;;;;;18.77;6.15;;;19.80;99.90;;;;;;4163537;28;20269;-84
2023/09/13 03:09:03;;;;;;;15.07;6.32;;;19.60;99.90;;;;;;4147444;28;20181;-83
2023/09/13 03:11:18;;;;;;;13.52;5.80;;;19.50;99.90;;;;;;4147837;28;20177;-83
2023/09/13 03:13:19;;;;;;;18.90;6.85;;;19.30;99.90;;;;;;4165258;28;20203;-83
2023/09/13 03:15:19;;;;;;;21.33;7.28;;;19.20;99.90;;;;;;4163734;28;20180;-83
2023/09/13 03:17:20;;;;;;;15.52;6.93;;;19.00;99.90;;;;;;4164019;28;20263;-83
2023/09/13 03:19:21;;;;;;;14.93;6.65;;;19.00;99.90;;;;;;4163994;28;20216;-84
2023/09/13 03:21:22;;;;;;;19.23;7.68;;;19.00;99.90;;;;;;4163982;28;20275;-83
2023/09/13 03:23:23;;;;;;;15.07;6.95;;;19.10;99.90;;;;;;4163751;28;20208;-94
2023/09/13 03:25:24;;;;;;;19.33;6.25;;;19.10;99.90;;;;;;4147602;28;20659;-84
2023/09/13 03:27:24;;;;;;;15.45;6.90;;;19.40;99.90;;;;;;4164010;28;20600;-95
2023/09/13 03:29:25;;;;;;;16.25;7.25;;;19.30;99.90;;;;;;4163674;28;20188;-84
2023/09/13 03:31:26;;;;;;;14.60;6.30;;;19.10;99.90;;;;;;4147514;28;20562;-83
2023/09/13 03:33:29;;;;;;;19.42;7.43;;;19.10;99.90;;;;;;4147474;28;20203;-84
2023/09/13 03:35:30;;;;;;;21.88;7.97;;;18.90;99.90;;;;;;4163673;28;20613;-95
2023/09/13 03:37:32;;;;;;;17.13;6.97;;;18.90;99.90;;;;;;4163780;28;20176;-94
2023/09/13 03:39:34;;;;;;;17.10;6.63;;;18.90;99.90;;;;;;4163436;28;20652;-84
2023/09/13 03:41:35;;;;;;;20.88;6.82;;;18.80;99.90;;;;;;4147783;28;20313;-87
2023/09/13 03:43:37;;;;;;;21.67;8.65;;;19.00;99.90;;;;;;4147336;28;20209;-94
2023/09/13 03:45:38;;;;;;;14.07;6.38;;;19.10;99.90;;;;;;4147464;28;20217;-84
2023/09/13 03:47:43;;;;;;;16.63;6.95;;;19.10;99.90;;;;;;4163567;28;20224;-94
2023/09/13 03:49:43;;;;;;;17.05;6.95;;;19.20;99.90;;;;;;4163554;28;20228;-90
2023/09/13 03:51:44;;;;;;;20.33;7.15;;;19.30;99.90;;;;;;4147260;28;20208;-95
2023/09/13 03:53:45;;;;;;;16.02;7.10;;;19.20;99.90;;;;;;4147625;28;20201;-85
2023/09/13 03:55:47;;;;;;;14.68;6.90;;;19.10;99.90;;;;;;4163642;28;20184;-84
2023/09/13 03:57:49;;;;;;;13.93;7.40;;;19.10;99.90;;;;;;4163438;28;20260;-84
2023/09/13 03:59:50;;;;;;;17.42;7.90;;;19.10;99.90;;;;;;4146965;28;20267;-84
2023/09/13 04:01:51;;;;;;;19.30;6.85;;;19.10;99.90;;;;;;4163574;28;20184;-94
2023/09/13 04:03:51;;;;;;;19.52;7.35;;;19.10;99.90;;;;;;4147374;28;20587;-83
2023/09/13 04:05:53;;;;;;;16.23;6.88;;;19.10;99.90;;;;;;4147349;28;20184;-83
2023/09/13 04:07:54;;;;;;;14.88;7.10;;;19.20;99.90;;;;;;4163624;28;20195;-83
2023/09/13 04:09:55;;;;;;;17.60;7.57;;;19.30;99.90;;;;;;4163547;28;20219;-84
2023/09/13 04:11:55;;;;;;;13.40;5.55;;;19.20;99.90;;;;;;4147073;28;20585;-83
2023/09/13 04:13:56;;;;;;;17.98;7.78;;;19.30;99.90;;;;;;4163261;28;20197;-84
2023/09/13 04:16:05;;;;;;;17.00;6.53;;;19.40;99.90;;;;;;4163500;28;20180;-95
2023/09/13 04:18:08;;;;;;;19.45;8.15;;;19.50;99.90;;;;;;4166085;28;20211;-83
2023/09/13 04:20:10;;;;;;;14.55;7.20;;;19.50;99.90;;;;;;4166472;28;20184;-83
2023/09/13 04:22:13;;;;;;;14.85;6.72;;;19.70;99.90;;;;;;4166600;28;20219;-83
2023/09/13 04:24:14;;;;;;;18.08;7.57;;;19.70;99.90;;;;;;4149941;28;20193;-83
2023/09/13 04:26:21;;;;;;;15.55;7.30;;;19.50;99.90;;;;;;4150408;28;20204;-96
2023/09/13 04:28:22;;;;;;;16.13;6.40;;;19.50;99.90;;;;;;4166507;28;20650;-84
2023/09/13 04:30:23;;;;;;;14.40;7.10;;;19.50;99.90;;;;;;4166452;28;20546;-83
2023/09/13 04:32:25;;;;;;;14.07;6.45;;;19.50;99.90;;;;;;4166113;28;20267;-84
2023/09/13 04:34:26;;;;;;;15.30;7.25;;;19.60;99.90;;;;;;4166299;28;20242;-84
2023/09/13 04:36:26;;;;;;;18.20;6.65;;;19.60;99.90;;;;;;4166180;28;20180;-85
2023/09/13 04:38:29;;;;;;;18.73;7.78;;;19.70;99.90;;;;;;4165888;28;20227;-84
2023/09/13 04:40:30;;;;;;;16.92;6.80;;;19.60;99.90;;;;;;4167378;28;20176;-83
2023/09/13 04:42:36;;;;;;;20.52;9.20;;;19.60;99.90;;;;;;4166507;28;20185;-95
2023/09/13 04:44:37;;;;;;;15.00;5.70;;;19.60;99.90;;;;;;4149925;28;20176;-84
2023/09/13 04:46:38;;;;;;;16.40;7.38;;;19.50;99.90;;;;;;4149980;28;20204;-94
2023/09/13 04:48:39;;;;;;;15.07;7.18;;;19.50;99.90;;;;;;4149879;28;20172;-94
2023/09/13 04:50:40;;;;;;;18.88;7.05;;;19.60;99.90;;;;;;4166112;28;20188;-94
2023/09/13 04:52:41;;;;;;;21.20;9.15;;;19.50;99.90;;;;;;4166191;28;20214;-94
2023/09/13 04:54:42;;;;;;;17.17;8.23;;;19.30;99.90;;;;;;4149614;28;20246;-94
2023/09/13 04:56:42;;;;;;;15.77;7.45;;;19.30;99.90;;;;;;4166354;28;20210;-94
2023/09/13 04:58:44;;;;;;;15.23;7.20;;;19.30;99.90;;;;;;4165918;28;20295;-83
2023/09/13 05:00:44;;;;;;;18.70;7.70;;;19.30;99.90;;;;;;4149746;28;20591;-94
2023/09/13 05:02:45;;;;;;;16.80;6.35;;;19.40;99.90;;;;;;4165747;28;20211;-84
2023/09/13 05:04:47;;;;;;;17.38;8.45;;;19.50;99.90;;;;;;4165955;28;20180;-84
2023/09/13 05:06:47;;;;;;;15.30;7.18;;;19.50;99.90;;;;;;4165768;28;20239;-84
2023/09/13 05:08:50;;;;;;;20.95;7.65;;;19.60;99.90;;;;;;4166213;28;20651;-84
2023/09/13 05:10:53;;;;;;;18.63;8.07;;;19.70;99.90;;;;;;4167605;28;20207;-84
2023/09/13 05:12:54;;;;;;;20.67;8.70;;;19.70;99.90;;;;;;4166069;28;20234;-84
2023/09/13 05:14:55;;;;;;;18.25;8.00;;;19.60;99.90;;;;;;4149606;28;20231;-84
2023/09/13 05:16:56;;;;;;;19.02;7.75;;;19.70;99.90;;;;;;4149659;28;20264;-84
2023/09/13 05:18:57;;;;;;;17.77;7.38;;;19.70;99.90;;;;;;4168053;28;20216;-84
2023/09/13 05:20:57;;;;;;;18.60;8.43;;;19.60;99.90;;;;;;4149428;28;20177;-84
2023/09/13 05:22:58;;;;;;;24.80;9.13;;;19.60;99.90;;;;;;4148995;28;20200;-84
2023/09/13 05:25:00;;;;;;;17.42;8.30;;;19.50;99.90;;;;;;4165609;28;20172;-84
2023/09/13 05:27:01;;;;;;;18.67;7.72;;;19.50;99.90;;;;;;4149282;28;20185;-84
2023/09/13 05:29:02;;;;;;;16.85;8.18;;;19.50;99.90;;;;;;4164806;28;20176;-84
2023/09/13 05:31:03;;;;;;;18.83;7.63;;;19.50;99.90;;;;;;4165570;28;20223;-95
2023/09/13 05:33:04;;;;;;;21.15;9.07;;;19.50;99.90;;;;;;4149291;28;20193;-83
2023/09/13 05:35:05;;;;;;;17.77;8.05;;;19.40;99.90;;;;;;4166615;28;20180;-93
2023/09/13 05:37:07;;;;;;;19.42;8.02;;;19.30;99.90;;;;;;4165780;28;20219;-84
2023/09/13 05:39:08;;;;;;;20.73;8.18;;;19.40;99.90;;;;;;4166726;28;20223;-84
2023/09/13 05:41:10;;;;;;;27.67;9.27;;;19.30;99.90;;;;;;4150182;28;20177;-86
2023/09/13 05:43:11;;;;;;;13.55;6.68;;;19.40;99.90;;;;;;4165545;28;20283;-84
2023/09/13 05:45:11;;;;;;;17.88;7.88;;;19.50;99.90;;;;;;4166245;28;20172;-95
2023/09/13 05:47:12;;;;;;;16.13;7.25;;;19.50;99.90;;;;;;4165343;28;20275;-96
2023/09/13 05:49:13;;;;;;;14.93;7.55;;;19.60;99.90;;;;;;4165732;28;20168;-95
2023/09/13 05:51:13;;;;;;;17.63;7.15;;;19.70;99.90;;;;;;4165959;28;20181;-95
2023/09/13 05:53:15;;;;;;;15.63;7.05;;;19.60;99.90;;;;;;4166143;28;20200;-92
2023/09/13 05:55:16;;;;;;;18.88;7.28;;;19.60;99.90;;;;;;4149037;28;20271;-84
2023/09/13 05:57:17;;;;;;;17.65;7.03;;;19.70;99.90;;;;;;4165335;28;20598;-95
2023/09/13 05:59:17;;;;;;;15.40;7.07;;;19.80;99.90;;;;;;4148629;28;20216;-96
2023/09/13 06:01:18;;;;;;;16.50;7.30;;;19.90;99.90;;;;;;4165197;28;20173;-83
2023/09/13 06:03:19;;;;;;;14.98;7.28;;;19.80;99.90;;;;;;4165329;28;20204;-84
2023/09/13 06:05:20;;;;;;;17.70;7.75;;;19.80;99.90;;;;;;4165539;28;20662;-84
2023/09/13 06:07:21;;;;;;;17.10;7.53;;;19.60;99.90;;;;;;4165712;28;20198;-84
2023/09/13 06:09:22;;;;;;;14.98;6.95;;;19.60;99.90;;;;;;4165036;28;20176;-94
2023/09/13 06:11:23;;;;;;;14.90;7.03;;;19.60;99.90;;;;;;4166088;28;20188;-84
2023/09/13 06:13:23;;;;;;;13.43;6.03;;;19.70;99.90;;;;;;4165181;28;20223;-86
2023/09/13 06:15:24;;;;;;;12.77;6.05;;;19.60;99.90;;;;;;4165231;28;20191;-84
2023/09/13 06:17:25;;;;;;;14.13;7.63;;;19.70;99.90;;;;;;4165069;28;20524;-94
2023/09/13 06:19:26;;;;;;;14.73;6.95;;;19.90;99.90;;;;;;4165111;28;20219;-96
2023/09/13 06:21:26;;;;;;;12.07;6.40;;;20.10;99.90;;;;;;4164871;28;20204;-84
2023/09/13 06:23:35;;;;;;;12.55;6.22;;;20.20;99.90;;;;;;4148272;28;20203;-83
2023/09/13 06:25:36;;;;;;;12.82;7.05;;;20.20;99.90;;;;;;4166314;28;20183;-84
2023/09/13 06:27:37;;;;;;;11.50;6.32;;;20.40;99.90;;;;;;4166162;28;20184;-84
2023/09/13 06:29:37;;;;;;;14.55;6.32;;;20.50;99.90;;;;;;4165646;28;20271;-95
2023/09/13 06:31:38;;;;;;;12.07;5.30;;;20.60;99.90;;;;;;4148797;28;20280;-84
2023/09/13 06:33:39;;;;;;;12.65;5.68;;;20.20;99.90;;;;;;4164597;28;20200;-84
2023/09/13 06:35:40;;;;;;;9.95;4.60;;;20.10;99.90;;;;;;4164657;28;20540;-85
2023/09/13 06:37:42;;;;;;;11.02;4.60;;;20.10;99.90;;;;;;4165340;28;20318;-84
2023/09/13 06:39:44;;;;;;;8.73;4.20;;;20.10;99.90;;;;;;4164980;28;20223;-87
2023/09/13 06:41:44;;;;;;;6.95;4.05;;;20.00;99.90;;;;;;4148922;28;20181;-93
2023/09/13 06:43:45;;;;;;;8.02;3.97;;;20.00;99.90;;;;;;4166045;28;20711;-84
2023/09/13 06:45:47;;;;;;;10.90;3.90;;;20.30;99.90;;;;;;4149186;28;20647;-83
2023/09/13 06:47:48;;;;;;;7.75;4.28;;;20.50;99.90;;;;;;4165785;28;20187;-84
2023/09/13 06:49:49;;;;;;;7.75;3.38;;;20.70;99.90;;;;;;4169262;28;20192;-84
2023/09/13 06:51:49;;;;;;;8.15;4.03;;;20.60;99.90;;;;;;4165308;28;20180;-84
2023/09/13 06:53:50;;;;;;;10.50;4.57;;;20.70;99.90;;;;;;4148727;28;20197;-83
2023/09/13 06:55:51;;;;;;;9.10;3.95;;;20.90;99.90;;;;;;4165224;28;20295;-85
2023/09/13 06:57:52;;;;;;;10.43;4.20;;;21.00;99.90;;;;;;4164986;28;20179;-84
2023/09/13 06:59:52;;;;;;;7.85;4.50;;;20.80;99.90;;;;;;4148212;28;20180;-84
2023/09/13 07:01:53;;;;;;;9.98;4.03;;;20.80;99.90;;;;;;4164824;28;20172;-84
2023/09/13 07:03:55;;;;;;;9.13;3.88;;;20.60;99.90;;;;;;4148962;28;20215;-96
2023/09/13 07:05:56;;;;;;;9.90;4.40;;;20.60;99.90;;;;;;4164594;28;20236;-84
2023/09/13 07:07:58;;;;;;;8.73;3.88;;;21.10;99.90;;;;;;4164658;28;20200;-84
2023/09/13 07:09:58;;;;;;;9.88;3.40;;;20.90;99.90;;;;;;4149602;28;20276;-84
2023/09/13 07:11:59;;;;;;;7.88;3.63;;;20.80;99.90;;;;;;4166523;28;20181;-84
2023/09/13 07:14:00;;;;;;;8.70;3.42;;;20.90;99.90;;;;;;4148307;28;20221;-84
2023/09/13 07:16:01;;;;;;;7.15;3.47;;;21.00;99.90;;;;;;4148674;28;20200;-96
2023/09/13 07:18:01;;;;;;;6.68;3.10;;;20.90;99.90;;;;;;4147726;28;20181;-84
2023/09/13 07:20:04;;;;;;;6.07;2.45;;;20.80;99.90;;;;;;4148789;28;20205;-95
2023/09/13 07:22:05;;;;;;;8.90;3.13;;;20.90;99.90;;;;;;4148784;28;20682;-84
2023/09/13 07:24:06;;;;;;;6.38;2.72;;;21.00;99.90;;;;;;4165016;28;20259;-95
2023/09/13 07:26:08;;;;;;;5.78;2.67;;;21.20;99.90;;;;;;4165309;28;20741;-86
2023/09/13 07:28:08;;;;;;;4.45;2.17;;;21.20;99.90;;;;;;4164560;28;20184;-83
2023/09/13 07:30:10;;;;;;;7.60;2.30;;;21.30;99.90;;;;;;4164090;28;20168;-93
2023/09/13 07:32:11;;;;;;;11.55;3.63;;;21.40;99.90;;;;;;4164149;28;20188;-95
2023/09/13 07:34:11;;;;;;;6.53;2.15;;;21.50;99.90;;;;;;4163796;28;20192;-84
2023/09/13 07:36:13;;;;;;;9.45;2.45;;;21.80;99.90;;;;;;4164069;28;20842;-84
2023/09/13 07:38:14;;;;;;;4.40;2.00;;;22.10;99.90;;;;;;4148148;28;20548;-84
2023/09/13 07:40:15;;;;;;;7.35;2.60;;;22.40;99.90;;;;;;4165597;28;20334;-94
2023/09/13 07:42:15;;;;;;;5.97;2.00;;;22.70;99.90;;;;;;4166129;28;20629;-86
2023/09/13 07:44:17;;;;;;;5.90;2.08;;;23.00;99.90;;;;;;4164803;28;20581;-90
2023/09/13 07:46:17;;;;;;;3.35;1.40;;;22.90;99.90;;;;;;4148422;28;20639;-96
2023/09/13 07:48:18;;;;;;;3.72;1.77;;;23.40;99.90;;;;;;4167067;28;20207;-94
2023/09/13 07:50:38;;;;;;;4.72;1.80;;;23.90;99.90;;;;;;4147980;28;20180;-84
2023/09/13 07:52:39;;;;;;;5.05;1.88;;;24.40;99.90;;;;;;4166666;28;20196;-88
2023/09/13 07:54:40;;;;;;;3.70;1.65;;;24.20;99.90;;;;;;4167395;28;20180;-95
2023/09/13 07:56:40;;;;;;;4.25;1.40;;;23.60;99.90;;;;;;4151210;28;20184;-94
2023/09/13 07:58:41;;;;;;;3.55;1.50;;;23.60;99.90;;;;;;4150564;28;20725;-94
2023/09/13 08:00:43;;;;;;;9.70;1.88;;;23.20;99.90;;;;;;4167855;28;20191;-96
2023/09/13 08:02:46;;;;;;;8.38;1.67;;;23.20;99.90;;;;;;4168724;28;20192;-84
2023/09/13 08:04:49;;;;;;;5.10;1.30;;;23.50;99.90;;;;;;4167144;28;20267;-94
2023/09/13 08:06:50;;;;;;;7.57;1.70;;;23.40;99.90;;;;;;4166871;28;20250;-84
2023/09/13 08:08:52;;;;;;;6.13;1.58;;;23.50;99.90;;;;;;4167745;28;20183;-83
2023/09/13 08:10:53;;;;;;;2.58;0.90;;;22.90;99.90;;;;;;4150509;28;20185;-92
2023/09/13 08:12:54;;;;;;;1.85;0.77;;;22.70;99.90;;;;;;4166916;28;20208;-83
2023/09/13 08:14:54;;;;;;;4.95;1.02;;;22.60;99.90;;;;;;4150667;28;20188;-83
2023/09/13 08:16:55;;;;;;;6.05;0.85;;;22.70;99.90;;;;;;4150364;28;20640;-85
2023/09/13 08:18:56;;;;;;;2.60;0.80;;;22.80;99.90;;;;;;4150977;28;20267;-83
2023/09/13 08:20:57;;;;;;;4.13;0.77;;;22.70;99.90;;;;;;4166930;28;20199;-83
2023/09/13 08:22:57;;;;;;;4.20;1.00;;;22.70;99.90;;;;;;4168473;28;20716;-83
2023/09/13 08:24:58;;;;;;;7.30;0.95;;;22.80;99.90;;;;;;4167351;28;20184;-83
2023/09/13 08:26:59;;;;;;;2.70;0.85;;;23.00;99.90;;;;;;4168414;28;20523;-84
2023/09/13 08:29:03;;;;;;;1.92;0.90;;;23.00;99.90;;;;;;4166408;28;20195;-83
2023/09/13 08:31:04;;;;;;;3.00;1.25;;;22.90;99.90;;;;;;4166599;28;20184;-83
2023/09/13 08:33:06;;;;;;;5.03;1.40;;;23.00;99.90;;;;;;4167899;28;20224;-84
2023/09/13 08:35:07;;;;;;;5.93;1.70;;;23.00;99.90;;;;;;4166957;28;20638;-84
2023/09/13 08:37:08;;;;;;;6.50;1.52;;;23.20;99.90;;;;;;4167155;28;20262;-84
2023/09/13 08:39:08;;;;;;;2.42;1.65;;;23.10;99.90;;;;;;4150779;28;20252;-94
2023/09/13 08:41:12;;;;;;;8.38;2.17;;;23.20;99.90;;;;;;4166619;28;20187;-83
2023/09/13 08:43:14;;;;;;;6.45;2.25;;;23.40;99.90;;;;;;4166572;28;20302;-83
2023/09/13 08:45:15;;;;;;;7.78;3.35;;;23.40;99.90;;;;;;4167121;28;20188;-84
2023/09/13 08:47:16;;;;;;;12.60;3.50;;;23.60;99.90;;;;;;4168358;28;20538;-83
2023/09/13 08:49:19;;;;;;;8.52;3.20;;;23.70;99.90;;;;;;4167261;28;20188;-84
2023/09/13 08:51:21;;;;;;;8.60;3.38;;;23.60;99.90;;;;;;4167625;28;20168;-84
2023/09/13 08:53:23;;;;;;;7.68;3.42;;;23.50;99.90;;;;;;4168262;28;20200;-84
2023/09/13 08:55:25;;;;;;;9.30;3.22;;;23.50;99.90;;;;;;4167497;28;20168;-83
2023/09/13 08:57:27;;;;;;;9.52;2.75;;;23.10;99.90;;;;;;4166734;28;20282;-84
2023/09/13 08:59:28;;;;;;;6.82;2.40;;;23.10;99.90;;;;;;4166735;28;20216;-96
2023/09/13 09:01:30;;;;;;;4.32;2.25;;;23.40;99.90;;;;;;4167166;28;20211;-84
2023/09/13 09:03:32;;;;;;;11.57;2.25;;;23.30;99.90;;;;;;4164717;28;20196;-84
2023/09/13 09:05:34;;;;;;;4.70;2.03;;;23.90;99.90;;;;;;4167112;28;20168;-83
2023/09/13 09:07:35;;;;;;;4.88;2.13;;;24.20;99.90;;;;;;4167053;28;20550;-83
2023/09/13 09:09:37;;;;;;;3.03;1.65;;;23.80;99.90;;;;;;4149696;28;20195;-83
2023/09/13 09:11:42;;;;;;;4.22;1.30;;;24.60;99.90;;;;;;4167361;28;20180;-84
2023/09/13 09:13:43;;;;;;;1.50;0.73;;;24.70;99.90;;;;;;4166016;28;20235;-95
2023/09/13 09:15:44;;;;;;;6.15;1.20;;;24.20;99.90;;;;;;4150008;28;20181;-85
2023/09/13 09:17:48;;;;;;;4.53;0.70;;;24.10;99.90;;;;;;4166595;28;20535;-95
2023/09/13 09:19:49;;;;;;;1.92;0.50;;;24.10;99.90;;;;;;4171029;28;20216;-84
2023/09/13 09:21:50;;;;;;;4.15;1.05;;;23.80;99.90;;;;;;4169381;28;20589;-83
2023/09/13 09:23:52;;;;;;;7.55;1.13;;;23.70;99.90;;;;;;4151117;28;20602;-84
2023/09/13 09:25:53;;;;;;;4.03;0.88;;;23.80;99.90;;;;;;4150151;28;20181;-93
2023/09/13 09:27:54;;;;;;;2.85;0.80;;;23.70;99.90;;;;;;4168066;28;20180;-83
2023/09/13 09:30:03;;;;;;;2.17;1.05;;;23.40;99.90;;;;;;4166214;28;20223;-83
2023/09/13 09:32:07;;;;;;;2.42;0.70;;;22.80;99.90;;;;;;4166753;28;20218;-83
2023/09/13 09:34:11;;;;;;;3.35;1.27;;;23.10;99.90;;;;;;4166261;28;20203;-82
2023/09/13 09:36:13;;;;;;;4.45;1.02;;;22.90;99.90;;;;;;4165545;28;20183;-82
2023/09/13 09:38:35;;;;;;;2.75;0.70;;;22.80;99.90;;;;;;4166436;28;20180;-83
2023/09/13 09:40:38;;;;;;;3.95;1.17;;;23.30;99.90;;;;;;4168009;28;20673;-90
2023/09/13 09:42:39;;;;;;;3.65;0.88;;;24.20;99.90;;;;;;4166292;28;20203;-83
2023/09/13 09:44:40;;;;;;;2.45;0.40;;;24.60;99.90;;;;;;4167580;28;20184;-84
2023/09/13 09:46:40;;;;;;;3.72;0.50;;;25.00;99.90;;;;;;4150498;28;20180;-83
2023/09/13 09:48:41;;;;;;;4.38;0.40;;;24.60;99.90;;;;;;4167190;28;20172;-94
2023/09/13 09:50:45;;;;;;;4.28;0.80;;;24.80;99.90;;;;;;4167623;28;20188;-93
2023/09/13 09:52:50;;;;;;;3.05;0.95;;;24.10;99.90;;;;;;4170338;28;20700;-91
2023/09/13 09:54:51;;;;;;;3.38;0.90;;;23.00;99.90;;;;;;4167814;28;20187;-92
2023/09/13 09:56:53;;;;;;;2.28;1.23;;;22.40;99.90;;;;;;4149988;28;20173;-95
2023/09/13 09:58:54;;;;;;;2.63;1.05;;;21.80;99.90;;;;;;4167735;28;20270;-83
2023/09/13 10:01:02;;;;;;;3.75;1.30;;;21.50;99.90;;;;;;4168314;28;20176;-84
2023/09/13 10:03:03;;;;;;;6.78;0.90;;;21.10;99.90;;;;;;4151664;28;20209;-83
2023/09/13 10:05:05;;;;;;;8.48;1.48;;;21.00;99.90;;;;;;4167312;28;20268;-83
2023/09/13 10:07:06;;;;;;;2.53;1.40;;;20.70;99.90;;;;;;4166425;28;20246;-83
2023/09/13 10:09:06;;;;;;;2.42;1.23;;;20.80;99.90;;;;;;4169140;28;20169;-83
2023/09/13 10:11:09;;;;;;;4.68;1.73;;;20.90;99.90;;;;;;4168598;28;20180;-83
2023/09/13 10:13:14;;;;;;;2.42;1.65;;;20.90;99.90;;;;;;4150874;28;20212;-83
2023/09/13 10:15:15;;;;;;;2.38;1.60;;;20.90;99.90;;;;;;4168365;28;20263;-94
2023/09/13 10:17:17;;;;;;;2.80;1.10;;;21.10;99.90;;;;;;4169761;28;20662;-84
2023/09/13 10:19:20;;;;;;;1.77;0.85;;;21.30;99.90;;;;;;4172418;28;20271;-85
2023/09/13 10:21:25;;;;;;;1.60;1.20;;;21.50;99.90;;;;;;4152134;28;20177;-83
2023/09/13 10:23:35;;;;;;;2.90;0.90;;;21.40;99.90;;;;;;4169632;28;20277;-89
2023/09/13 10:25:37;;;;;;;1.45;1.02;;;21.40;99.90;;;;;;4170331;28;20649;-83
2023/09/13 10:27:39;;;;;;;3.38;1.00;;;21.40;99.90;;;;;;4171291;28;20263;-83
2023/09/13 10:29:45;;;;;;;4.97;0.95;;;21.40;99.90;;;;;;4169697;28;20184;-83